createdAt,value
2018-09-27T00:00:40.166Z,3.83
2018-09-27T00:03:08.701Z,3.87
2018-09-27T00:05:37.206Z,4.37
2018-09-27T00:08:05.686Z,4.00
2018-09-27T00:10:34.066Z,4.20
2018-09-27T00:13:02.776Z,3.60
2018-09-27T00:15:31.199Z,3.97
2018-09-27T00:18:00.019Z,4.53
2018-09-27T00:20:28.687Z,3.90
2018-09-27T00:22:57.095Z,4.40
2018-09-27T00:25:26.201Z,4.57
2018-09-27T00:27:55.040Z,3.93
2018-09-27T00:30:30.427Z,4.33
2018-09-27T00:32:58.905Z,4.40
2018-09-27T00:35:27.483Z,4.37
2018-09-27T00:37:55.897Z,3.77
2018-09-27T00:40:24.282Z,4.17
2018-09-27T00:42:52.662Z,4.20
2018-09-27T00:45:21.127Z,3.57
2018-09-27T00:47:49.553Z,3.90
2018-09-27T00:50:17.941Z,3.37
2018-09-27T00:52:46.369Z,3.97
2018-09-27T00:55:14.819Z,3.93
2018-09-27T00:57:43.161Z,3.60
2018-09-27T01:00:11.539Z,3.70
2018-09-27T01:02:40.286Z,4.00
2018-09-27T01:05:08.639Z,4.10
2018-09-27T01:07:37.234Z,4.00
2018-09-27T01:10:05.922Z,4.43
2018-09-27T01:12:34.932Z,3.47
2018-09-27T01:15:03.364Z,4.10
2018-09-27T01:17:31.826Z,4.13
2018-09-27T01:20:00.165Z,4.00
2018-09-27T01:22:28.787Z,3.33
2018-09-27T01:24:57.233Z,4.00
2018-09-27T01:27:25.860Z,3.77
2018-09-27T01:29:54.331Z,3.70
2018-09-27T01:32:22.730Z,3.90
2018-09-27T01:34:51.699Z,3.87
2018-09-27T01:37:20.138Z,3.33
2018-09-27T01:39:48.738Z,3.37
2018-09-27T01:42:17.152Z,3.80
2018-09-27T01:44:45.740Z,3.87
2018-09-27T01:47:14.316Z,4.17
2018-09-27T01:49:42.724Z,3.83
2018-09-27T01:52:11.261Z,4.17
2018-09-27T01:54:40.072Z,4.00
2018-09-27T01:57:08.760Z,3.70
2018-09-27T01:59:37.126Z,4.23
2018-09-27T02:02:05.658Z,4.40
2018-09-27T02:04:34.066Z,3.77
2018-09-27T02:07:02.573Z,3.80
2018-09-27T02:09:31.113Z,3.67
2018-09-27T02:11:59.448Z,3.73
2018-09-27T02:14:27.860Z,4.20
2018-09-27T02:16:56.278Z,3.97
2018-09-27T02:19:25.556Z,4.10
2018-09-27T02:21:54.370Z,4.23
2018-09-27T02:24:23.027Z,4.63
2018-09-27T02:26:52.302Z,4.50
2018-09-27T02:29:20.717Z,4.77
2018-09-27T02:31:49.160Z,4.30
2018-09-27T02:34:17.627Z,4.33
2018-09-27T02:36:46.129Z,4.53
2018-09-27T02:39:15.991Z,3.97
2018-09-27T02:41:44.404Z,4.20
2018-09-27T02:44:12.800Z,5.17
2018-09-27T02:46:41.146Z,5.17
2018-09-27T02:49:09.512Z,5.20
2018-09-27T02:51:38.760Z,5.23
2018-09-27T02:54:07.167Z,4.73
2018-09-27T02:56:35.523Z,5.10
2018-09-27T02:59:03.930Z,4.90
2018-09-27T03:01:32.276Z,4.47
2018-09-27T03:04:00.714Z,5.13
2018-09-27T03:06:29.226Z,5.43
2018-09-27T03:08:57.612Z,5.33
2018-09-27T03:11:25.949Z,4.83
2018-09-27T03:13:54.366Z,4.80
2018-09-27T03:16:22.815Z,5.10
2018-09-27T03:18:51.170Z,5.67
2018-09-27T03:21:21.212Z,5.23
2018-09-27T03:23:49.556Z,5.80
2018-09-27T03:26:17.904Z,5.77
2018-09-27T03:28:46.244Z,5.33
2018-09-27T03:31:14.590Z,6.30
2018-09-27T03:33:42.972Z,5.97
2018-09-27T03:36:11.444Z,5.70
2018-09-27T03:38:39.816Z,5.20
2018-09-27T03:41:08.199Z,5.60
2018-09-27T03:43:36.645Z,6.30
2018-09-27T03:46:05.003Z,5.90
2018-09-27T03:48:33.396Z,5.10
2018-09-27T03:51:01.958Z,6.03
2018-09-27T03:53:30.333Z,6.00
2018-09-27T03:55:58.726Z,6.03
2018-09-27T03:58:27.094Z,5.83
2018-09-27T04:00:55.571Z,6.23
2018-09-27T04:03:24.040Z,5.83
2018-09-27T04:05:52.328Z,5.93
2018-09-27T04:08:20.702Z,6.07
2018-09-27T04:10:49.282Z,6.53
2018-09-27T04:13:17.726Z,5.93
2018-09-27T04:15:47.255Z,5.57
2018-09-27T04:18:15.662Z,6.27
2018-09-27T04:20:52.185Z,6.20
2018-09-27T04:23:22.383Z,6.87
2018-09-27T04:25:51.766Z,6.67
2018-09-27T04:28:20.653Z,6.57
2018-09-27T04:30:49.145Z,6.57
2018-09-27T04:33:17.557Z,6.63
2018-09-27T04:35:46.039Z,6.77
2018-09-27T04:38:14.500Z,6.63
2018-09-27T04:40:42.904Z,7.30
2018-09-27T04:43:11.466Z,6.53
2018-09-27T04:45:39.951Z,7.27
2018-09-27T04:48:08.278Z,7.93
2018-09-27T04:50:36.736Z,7.90
2018-09-27T04:53:05.134Z,8.13
2018-09-27T04:55:33.724Z,7.30
2018-09-27T04:58:02.334Z,8.50
2018-09-27T05:00:31.435Z,8.33
2018-09-27T05:02:59.947Z,8.80
2018-09-27T05:05:29.117Z,8.20
2018-09-27T05:07:57.663Z,9.33
2018-09-27T05:10:26.200Z,9.33
2018-09-27T05:12:54.826Z,8.97
2018-09-27T05:15:23.286Z,9.13
2018-09-27T05:17:51.614Z,8.77
2018-09-27T05:20:20.327Z,9.20
2018-09-27T05:22:48.742Z,9.63
2018-09-27T05:25:17.115Z,8.17
2018-09-27T05:27:45.565Z,8.57
2018-09-27T05:30:14.009Z,8.83
2018-09-27T05:32:42.424Z,8.40
2018-09-27T05:35:10.917Z,9.63
2018-09-27T05:37:39.364Z,9.50
2018-09-27T05:40:08.062Z,9.50
2018-09-27T05:42:36.470Z,9.37
2018-09-27T05:45:04.852Z,10.50
2018-09-27T05:47:39.674Z,10.50
2018-09-27T05:50:08.465Z,10.63
2018-09-27T05:52:36.894Z,10.17
2018-09-27T05:55:05.361Z,10.00
2018-09-27T05:57:33.845Z,11.07
2018-09-27T06:00:02.324Z,10.40
2018-09-27T06:02:30.960Z,11.03
2018-09-27T06:04:59.458Z,9.73
2018-09-27T06:07:27.941Z,11.53
2018-09-27T06:09:56.566Z,11.73
2018-09-27T06:12:24.992Z,11.70
2018-09-27T06:14:53.482Z,11.57
2018-09-27T06:17:21.924Z,12.17
2018-09-27T06:19:50.559Z,12.33
2018-09-27T06:22:19.070Z,12.20
2018-09-27T06:24:47.862Z,13.07
2018-09-27T06:27:16.248Z,11.80
2018-09-27T06:29:44.738Z,11.90
2018-09-27T06:32:13.189Z,13.20
2018-09-27T06:34:41.656Z,13.47
2018-09-27T06:37:10.167Z,13.47
2018-09-27T06:39:38.609Z,14.10
2018-09-27T06:42:07.213Z,13.33
2018-09-27T06:44:35.660Z,14.30
2018-09-27T06:47:04.231Z,13.60
2018-09-27T06:49:32.740Z,15.13
2018-09-27T06:52:01.452Z,14.73
2018-09-27T06:54:29.839Z,14.47
2018-09-27T06:56:58.389Z,14.03
2018-09-27T06:59:26.968Z,14.90
2018-09-27T07:01:55.538Z,15.80
2018-09-27T07:04:23.958Z,17.03
2018-09-27T07:06:52.451Z,16.70
2018-09-27T07:09:20.922Z,18.43
2018-09-27T07:11:49.581Z,18.17
2018-09-27T07:14:18.123Z,19.17
2018-09-27T07:16:46.565Z,19.27
2018-09-27T07:19:15.133Z,18.93
2018-09-27T07:21:43.557Z,19.47
2018-09-27T07:24:12.133Z,19.50
2018-09-27T07:26:40.574Z,18.63
2018-09-27T07:29:08.987Z,18.10
2018-09-27T07:31:37.617Z,18.00
2018-09-27T07:34:06.203Z,17.60
2018-09-27T07:36:34.743Z,18.43
2018-09-27T07:39:03.285Z,16.77
2018-09-27T07:41:31.856Z,17.37
2018-09-27T07:44:00.373Z,16.70
2018-09-27T07:46:28.869Z,16.40
2018-09-27T07:48:57.272Z,16.87
2018-09-27T07:51:25.675Z,18.17
2018-09-27T07:53:55.030Z,18.07
2018-09-27T07:56:23.683Z,18.17
2018-09-27T07:58:52.247Z,17.30
2018-09-27T08:01:21.001Z,18.07
2018-09-27T08:03:49.669Z,16.87
2018-09-27T08:06:18.202Z,18.90
2018-09-27T08:08:47.555Z,20.03
2018-09-27T08:11:16.195Z,18.80
2018-09-27T08:13:44.567Z,19.40
2018-09-27T08:16:13.012Z,19.23
2018-09-27T08:18:41.735Z,18.60
2018-09-27T08:21:10.432Z,19.07
2018-09-27T08:23:38.901Z,18.60
2018-09-27T08:26:07.418Z,18.27
2018-09-27T08:28:35.769Z,17.47
2018-09-27T08:31:04.303Z,18.17
2018-09-27T08:33:32.903Z,17.77
2018-09-27T08:36:01.931Z,18.33
2018-09-27T08:38:30.430Z,18.70
2018-09-27T08:40:58.876Z,19.77
2018-09-27T08:43:27.408Z,18.00
2018-09-27T08:45:55.901Z,18.47
2018-09-27T08:48:24.277Z,17.67
2018-09-27T08:50:52.769Z,19.77
2018-09-27T08:53:21.157Z,18.17
2018-09-27T08:55:49.677Z,17.67
2018-09-27T08:58:18.077Z,16.20
2018-09-27T09:00:46.473Z,18.47
2018-09-27T09:03:15.072Z,17.93
2018-09-27T09:05:43.457Z,17.20
2018-09-27T09:08:12.598Z,15.33
2018-09-27T09:10:41.452Z,16.47
2018-09-27T09:13:10.049Z,15.73
2018-09-27T09:15:38.531Z,14.73
2018-09-27T09:18:07.210Z,13.53
2018-09-27T09:20:35.606Z,13.50
2018-09-27T09:23:04.220Z,13.07
2018-09-27T09:25:32.653Z,12.57
2018-09-27T09:28:01.183Z,12.23
2018-09-27T09:30:29.605Z,11.87
2018-09-27T09:32:58.084Z,11.20
2018-09-27T09:35:26.509Z,11.60
2018-09-27T09:37:54.980Z,11.17
2018-09-27T09:40:23.500Z,10.73
2018-09-27T09:42:51.912Z,10.67
2018-09-27T09:45:20.387Z,10.27
2018-09-27T09:47:49.003Z,10.53
2018-09-27T09:50:17.526Z,10.83
2018-09-27T09:52:46.018Z,10.90
2018-09-27T09:55:14.576Z,9.10
2018-09-27T09:57:43.232Z,9.03
2018-09-27T10:00:11.634Z,9.00
2018-09-27T10:02:40.084Z,9.37
2018-09-27T10:05:08.690Z,9.50
2018-09-27T10:07:37.130Z,8.37
2018-09-27T10:10:07.468Z,7.93
2018-09-27T10:12:35.865Z,8.40
2018-09-27T10:15:07.707Z,8.40
2018-09-27T10:17:36.359Z,8.87
2018-09-27T10:20:04.845Z,8.77
2018-09-27T10:22:33.450Z,8.63
2018-09-27T10:25:02.045Z,9.93
2018-09-27T10:27:30.501Z,13.87
2018-09-27T10:29:58.951Z,8.60
2018-09-27T10:32:27.484Z,8.80
2018-09-27T10:34:56.036Z,9.53
2018-09-27T10:37:24.537Z,11.00
2018-09-27T10:39:53.203Z,11.57
2018-09-27T10:42:21.730Z,10.33
2018-09-27T10:44:50.839Z,11.33
2018-09-27T10:47:19.246Z,12.67
2018-09-27T10:49:47.693Z,11.50
2018-09-27T10:52:16.086Z,12.13
2018-09-27T10:54:44.496Z,11.63
2018-09-27T10:57:13.147Z,11.93
2018-09-27T10:59:41.782Z,12.20
2018-09-27T11:02:10.905Z,13.33
2018-09-27T11:04:40.006Z,12.73
2018-09-27T11:07:08.523Z,13.53
2018-09-27T11:09:37.183Z,13.87
2018-09-27T11:12:05.689Z,13.17
2018-09-27T11:14:34.764Z,13.63
2018-09-27T11:17:03.409Z,14.00
2018-09-27T11:19:32.054Z,13.73
2018-09-27T11:22:01.007Z,13.50
2018-09-27T11:24:30.074Z,14.83
2018-09-27T11:26:59.647Z,14.67
2018-09-27T11:29:33.488Z,14.47
2018-09-27T11:32:07.275Z,13.43
2018-09-27T11:34:36.187Z,13.07
2018-09-27T11:37:04.735Z,12.47
2018-09-27T11:39:33.727Z,13.20
2018-09-27T11:42:02.485Z,13.77
2018-09-27T11:44:31.354Z,13.03
2018-09-27T11:47:00.523Z,13.80
2018-09-27T11:49:29.037Z,13.07
2018-09-27T11:51:57.493Z,13.50
2018-09-27T11:54:25.985Z,13.13
2018-09-27T11:56:54.420Z,12.60
2018-09-27T11:59:22.947Z,12.90
2018-09-27T12:01:51.604Z,12.57
2018-09-27T12:04:20.113Z,12.57
2018-09-27T12:06:48.575Z,11.97
2018-09-27T12:09:17.040Z,12.53
2018-09-27T12:11:45.563Z,13.00
2018-09-27T12:14:14.568Z,13.03
2018-09-27T12:16:43.102Z,12.90
2018-09-27T12:19:11.533Z,13.10
2018-09-27T12:21:40.015Z,12.50
2018-09-27T12:24:08.451Z,11.87
2018-09-27T12:26:37.010Z,13.07
2018-09-27T12:29:05.468Z,11.80
2018-09-27T12:31:35.814Z,12.37
2018-09-27T12:34:04.292Z,12.47
2018-09-27T12:36:32.788Z,12.53
2018-09-27T12:39:01.312Z,11.90
2018-09-27T12:41:29.785Z,12.30
2018-09-27T12:43:58.208Z,11.57
2018-09-27T12:46:26.646Z,10.90
2018-09-27T12:48:55.249Z,10.97
2018-09-27T12:51:23.721Z,10.37
2018-09-27T12:53:52.238Z,11.73
2018-09-27T12:56:20.748Z,10.47
2018-09-27T12:58:49.251Z,10.80
2018-09-27T13:01:17.811Z,11.17
2018-09-27T13:03:46.293Z,11.63
2018-09-27T13:06:14.714Z,11.13
2018-09-27T13:08:43.160Z,10.13
2018-09-27T13:11:11.816Z,9.97
2018-09-27T13:13:40.707Z,10.70
2018-09-27T13:16:09.394Z,10.50
2018-09-27T13:18:37.825Z,9.67
2018-09-27T13:21:06.218Z,10.57
2018-09-27T13:23:34.894Z,10.37
2018-09-27T13:26:03.367Z,10.50
2018-09-27T13:28:31.912Z,10.53
2018-09-27T13:31:00.572Z,9.83
2018-09-27T13:33:28.983Z,10.37
2018-09-27T13:35:57.467Z,10.07
2018-09-27T13:38:26.192Z,9.67
2018-09-27T13:40:54.736Z,9.83
2018-09-27T13:43:23.214Z,9.80
2018-09-27T13:45:51.878Z,9.63
2018-09-27T13:48:20.435Z,10.03
2018-09-27T13:50:48.819Z,9.57
2018-09-27T13:53:17.289Z,9.70
2018-09-27T13:55:45.729Z,9.87
2018-09-27T13:58:14.141Z,8.73
2018-09-27T14:00:42.553Z,10.00
2018-09-27T14:03:11.313Z,9.40
2018-09-27T14:05:39.760Z,9.03
2018-09-27T14:08:08.402Z,9.50
2018-09-27T14:10:36.934Z,9.23
2018-09-27T14:13:05.425Z,9.13
2018-09-27T14:15:33.978Z,8.33
2018-09-27T14:18:02.535Z,8.73
2018-09-27T14:20:31.067Z,8.70
2018-09-27T14:22:59.829Z,8.60
2018-09-27T14:25:28.211Z,8.80
2018-09-27T14:27:56.854Z,8.60
2018-09-27T14:30:25.315Z,9.10
2018-09-27T14:32:53.886Z,8.77
2018-09-27T14:35:22.294Z,8.03
2018-09-27T14:37:50.871Z,8.40
2018-09-27T14:40:19.315Z,9.20
2018-09-27T14:42:47.839Z,8.87
2018-09-27T14:45:16.265Z,9.40
2018-09-27T14:47:45.650Z,9.80
2018-09-27T14:50:14.519Z,9.87
2018-09-27T14:52:42.993Z,10.10
2018-09-27T14:55:11.342Z,20.20
2018-09-27T14:57:39.788Z,9.07
2018-09-27T15:00:08.230Z,9.43
2018-09-27T15:02:36.923Z,10.53
2018-09-27T15:05:05.484Z,8.87
2018-09-27T15:07:33.866Z,7.57
2018-09-27T15:10:02.767Z,7.07
2018-09-27T15:12:31.164Z,8.17
2018-09-27T15:14:59.590Z,8.07
2018-09-27T15:17:28.176Z,6.90
2018-09-27T15:19:56.673Z,9.03
2018-09-27T15:22:25.156Z,10.13
2018-09-27T15:24:53.648Z,16.50
2018-09-27T15:27:22.290Z,10.00
2018-09-27T15:29:50.782Z,9.27
2018-09-27T15:32:19.605Z,8.67
2018-09-27T15:34:48.643Z,9.17
2018-09-27T15:37:17.233Z,7.77
2018-09-27T15:39:45.905Z,7.77
2018-09-27T15:42:14.467Z,7.23
2018-09-27T15:44:42.912Z,7.00
2018-09-27T15:47:11.463Z,7.00
2018-09-27T15:49:40.290Z,10.40
2018-09-27T15:52:09.054Z,15.40
2018-09-27T15:54:37.721Z,18.97
2018-09-27T15:57:06.391Z,11.30
2018-09-27T15:59:35.230Z,12.27
2018-09-27T16:02:04.306Z,9.93
2018-09-27T16:04:51.632Z,8.70
2018-09-27T16:07:25.994Z,8.30
2018-09-27T16:09:54.679Z,7.73
2018-09-27T16:12:23.342Z,8.87
2018-09-27T16:14:51.949Z,9.07
2018-09-27T16:17:20.388Z,11.60
2018-09-27T16:19:48.874Z,10.33
2018-09-27T16:22:17.263Z,9.50
2018-09-27T16:24:45.719Z,9.70
2018-09-27T16:27:14.186Z,8.60
2018-09-27T16:29:42.857Z,9.43
2018-09-27T16:32:11.965Z,9.73
2018-09-27T16:34:40.481Z,15.07
2018-09-27T16:37:09.125Z,15.63
2018-09-27T16:39:37.773Z,21.77
2018-09-27T16:42:06.874Z,10.33
2018-09-27T16:44:35.353Z,16.40
2018-09-27T16:47:04.003Z,11.73
2018-09-27T16:49:32.413Z,12.90
2018-09-27T16:52:01.141Z,9.67
2018-09-27T16:54:29.751Z,9.70
2018-09-27T16:56:58.119Z,9.23
2018-09-27T16:59:26.603Z,8.53
2018-09-27T17:01:55.150Z,8.23
2018-09-27T17:04:23.689Z,8.23
2018-09-27T17:06:52.149Z,9.63
2018-09-27T17:09:20.541Z,9.23
2018-09-27T17:11:49.049Z,8.53
2018-09-27T17:14:17.569Z,8.60
2018-09-27T17:16:46.010Z,8.53
2018-09-27T17:19:14.527Z,7.80
2018-09-27T17:21:42.704Z,9.03
2018-09-27T17:24:11.168Z,9.20
2018-09-27T17:26:39.676Z,11.97
2018-09-27T17:29:11.485Z,10.00
2018-09-27T17:31:39.935Z,10.87
2018-09-27T17:34:08.559Z,10.50
2018-09-27T17:36:36.942Z,9.73
2018-09-27T17:39:06.901Z,9.67
2018-09-27T17:41:35.432Z,8.40
2018-09-27T17:44:03.936Z,9.20
2018-09-27T17:46:32.701Z,10.27
2018-09-27T17:49:01.411Z,9.43
2018-09-27T17:51:30.181Z,9.57
2018-09-27T17:53:58.649Z,9.23
2018-09-27T17:56:27.378Z,11.00
2018-09-27T17:58:55.894Z,9.77
2018-09-27T18:01:24.377Z,12.07
2018-09-27T18:03:52.978Z,14.47
2018-09-27T18:06:21.419Z,10.90
2018-09-27T18:08:50.010Z,10.27
2018-09-27T18:11:18.490Z,10.00
2018-09-27T18:13:46.989Z,11.43
2018-09-27T18:16:15.555Z,10.87
2018-09-27T18:18:45.045Z,10.73
2018-09-27T18:21:13.776Z,11.30
2018-09-27T18:23:42.362Z,11.23
2018-09-27T18:26:11.040Z,12.13
2018-09-27T18:28:39.797Z,12.43
2018-09-27T18:31:08.507Z,10.33
2018-09-27T18:33:36.983Z,11.47
2018-09-27T18:36:05.424Z,12.20
2018-09-27T18:38:34.211Z,12.00
2018-09-27T18:41:02.966Z,12.80
2018-09-27T18:43:31.911Z,12.70
2018-09-27T18:46:00.469Z,11.27
2018-09-27T18:48:29.322Z,12.77
2018-09-27T18:50:57.941Z,12.77
2018-09-27T18:53:26.579Z,11.97
2018-09-27T18:55:55.297Z,13.50
2018-09-27T18:58:24.005Z,13.37
2018-09-27T19:00:53.555Z,13.73
2018-09-27T19:03:22.346Z,14.80
2018-09-27T19:05:51.054Z,15.23
2018-09-27T19:08:19.868Z,15.50
2018-09-27T19:10:48.723Z,14.63
2018-09-27T19:13:17.386Z,14.17
2018-09-27T19:15:45.891Z,15.17
2018-09-27T19:18:14.745Z,13.87
2018-09-27T19:20:43.295Z,15.50
2018-09-27T19:23:11.907Z,13.63
2018-09-27T19:25:40.429Z,13.77
2018-09-27T19:28:09.148Z,13.83
2018-09-27T19:30:37.914Z,12.50
2018-09-27T19:33:06.742Z,13.13
2018-09-27T19:35:35.278Z,13.20
2018-09-27T19:38:04.046Z,12.87
2018-09-27T19:40:32.959Z,13.40
2018-09-27T19:43:01.637Z,20.90
2018-09-27T19:45:30.539Z,14.77
2018-09-27T19:47:59.381Z,11.87
2018-09-27T19:50:28.240Z,12.80
2018-09-27T19:52:57.516Z,12.50
2018-09-27T19:55:26.735Z,12.53
2018-09-27T19:57:55.913Z,12.00
2018-09-27T20:00:25.509Z,11.77
2018-09-27T20:02:54.863Z,12.57
2018-09-27T20:05:24.185Z,11.17
2018-09-27T20:07:54.088Z,10.77
2018-09-27T20:10:24.002Z,10.63
2018-09-27T20:12:53.163Z,9.47
2018-09-27T20:15:22.564Z,8.70
2018-09-27T20:17:52.050Z,7.83
2018-09-27T20:20:21.076Z,7.20
2018-09-27T20:22:49.959Z,6.90
2018-09-27T20:25:18.864Z,7.60
2018-09-27T20:27:47.551Z,7.43
2018-09-27T20:30:16.241Z,7.33
2018-09-27T20:32:44.916Z,6.53
2018-09-27T20:35:13.498Z,6.57
2018-09-27T20:37:42.488Z,7.03
2018-09-27T20:40:11.088Z,7.90
2018-09-27T20:42:39.763Z,7.73
2018-09-27T20:45:08.339Z,8.03
2018-09-27T20:47:37.126Z,8.10
2018-09-27T20:50:05.760Z,7.47
2018-09-27T20:52:34.696Z,7.80
2018-09-27T20:55:03.867Z,8.33
2018-09-27T20:57:32.453Z,8.20
2018-09-27T21:00:01.257Z,8.37
2018-09-27T21:02:30.308Z,8.37
2018-09-27T21:04:58.727Z,8.97
2018-09-27T21:07:27.323Z,8.70
2018-09-27T21:10:02.622Z,8.53
2018-09-27T21:12:31.393Z,8.90
2018-09-27T21:14:59.818Z,8.67
2018-09-27T21:17:28.691Z,8.67
2018-09-27T21:19:57.209Z,8.10
2018-09-27T21:22:26.465Z,8.03
2018-09-27T21:24:55.096Z,8.80
2018-09-27T21:27:23.863Z,9.07
2018-09-27T21:29:52.379Z,8.67
2018-09-27T21:32:28.127Z,9.63
2018-09-27T21:34:57.165Z,10.00
2018-09-27T21:37:25.809Z,9.10
2018-09-27T21:39:54.446Z,9.73
2018-09-27T21:42:23.175Z,9.97
2018-09-27T21:44:51.773Z,9.93
2018-09-27T21:47:20.248Z,10.53
2018-09-27T21:49:48.973Z,10.43
2018-09-27T21:52:17.561Z,10.37
2018-09-27T21:54:46.162Z,11.90
2018-09-27T21:57:14.920Z,10.70
2018-09-27T21:59:43.788Z,11.00
2018-09-27T22:02:12.395Z,10.70
2018-09-27T22:04:41.148Z,10.90
2018-09-27T22:07:10.134Z,10.73
2018-09-27T22:09:38.716Z,11.63
2018-09-27T22:12:07.350Z,11.07
2018-09-27T22:14:35.909Z,11.13
2018-09-27T22:17:04.561Z,12.23
2018-09-27T22:19:33.483Z,11.43
2018-09-27T22:22:02.482Z,12.07
2018-09-27T22:24:30.999Z,13.37
2018-09-27T22:26:59.773Z,13.37
2018-09-27T22:29:28.209Z,13.13
2018-09-27T22:31:56.732Z,13.80
2018-09-27T22:34:25.244Z,15.03
2018-09-27T22:36:54.103Z,14.67
2018-09-27T22:39:22.663Z,16.00
2018-09-27T22:41:51.047Z,17.13
2018-09-27T22:44:19.655Z,18.00
2018-09-27T22:46:48.137Z,18.50
2018-09-27T22:49:16.540Z,19.40
2018-09-27T22:51:44.964Z,20.53
2018-09-27T22:54:13.543Z,19.80
2018-09-27T22:56:42.133Z,22.37
2018-09-27T22:59:10.582Z,22.10
2018-09-27T23:01:39.119Z,20.70
2018-09-27T23:04:07.705Z,22.20
2018-09-27T23:06:36.252Z,23.57
2018-09-27T23:09:06.260Z,24.60
2018-09-27T23:11:34.914Z,25.83
2018-09-27T23:14:04.712Z,26.67
2018-09-27T23:16:33.263Z,28.43
2018-09-27T23:19:02.248Z,26.93
2018-09-27T23:21:30.875Z,27.80
2018-09-27T23:23:59.774Z,27.97
2018-09-27T23:26:29.184Z,25.63
2018-09-27T23:28:57.941Z,25.70
2018-09-27T23:31:26.960Z,24.27
2018-09-27T23:33:55.542Z,24.17
2018-09-27T23:36:24.403Z,23.43
2018-09-27T23:38:52.981Z,22.77
2018-09-27T23:41:21.896Z,20.93
2018-09-27T23:43:50.511Z,20.07
2018-09-27T23:46:19.006Z,18.80
2018-09-27T23:48:47.619Z,17.70
2018-09-27T23:51:16.221Z,15.27
2018-09-27T23:53:44.706Z,13.33
2018-09-27T23:56:13.234Z,12.03
2018-09-27T23:58:41.855Z,8.87
